createdAt,value
2022-10-08T00:01:08.000Z,22.6
2022-10-08T00:02:18.000Z,22.6
2022-10-08T00:03:29.000Z,22.6
2022-10-08T00:04:39.000Z,22.6
2022-10-08T00:05:49.000Z,22.6
2022-10-08T00:06:59.000Z,22.6
2022-10-08T00:08:09.000Z,22.6
2022-10-08T00:09:19.000Z,22.6
2022-10-08T00:10:29.000Z,22.6
2022-10-08T00:11:39.000Z,22.6
2022-10-08T00:12:49.000Z,22.6
2022-10-08T00:13:59.000Z,22.6
2022-10-08T00:15:09.000Z,22.6
2022-10-08T00:16:19.000Z,22.6
2022-10-08T00:17:29.000Z,22.6
2022-10-08T00:18:39.000Z,22.6
2022-10-08T00:19:49.000Z,22.6
2022-10-08T00:20:58.000Z,22.6
2022-10-08T00:22:07.000Z,22.6
2022-10-08T00:23:17.000Z,22.6
2022-10-08T00:24:26.000Z,22.6
2022-10-08T00:25:36.000Z,22.6
2022-10-08T00:26:46.000Z,22.6
2022-10-08T00:27:56.000Z,22.6
2022-10-08T00:29:06.000Z,22.6
2022-10-08T00:30:16.000Z,22.6
2022-10-08T00:31:26.000Z,22.6
2022-10-08T00:32:37.000Z,22.6
2022-10-08T00:33:47.000Z,22.6
2022-10-08T00:34:57.000Z,22.6
2022-10-08T00:36:07.000Z,22.6
2022-10-08T00:37:17.000Z,22.6
2022-10-08T00:38:27.000Z,22.6
2022-10-08T00:39:36.000Z,22.6
2022-10-08T00:40:46.000Z,22.5
2022-10-08T00:41:57.000Z,22.5
2022-10-08T00:43:07.000Z,22.6
2022-10-08T00:44:17.000Z,22.5
2022-10-08T00:45:27.000Z,22.5
2022-10-08T00:46:37.000Z,22.5
2022-10-08T00:47:46.000Z,22.5
2022-10-08T00:48:55.000Z,22.5
2022-10-08T00:50:05.000Z,22.5
2022-10-08T00:51:15.000Z,22.5
2022-10-08T00:52:26.000Z,22.5
2022-10-08T00:53:36.000Z,22.5
2022-10-08T00:54:46.000Z,22.5
2022-10-08T00:55:56.000Z,22.5
2022-10-08T00:57:06.000Z,22.5
2022-10-08T00:58:16.000Z,22.5
2022-10-08T00:59:26.000Z,22.5
2022-10-08T01:00:36.000Z,22.5
2022-10-08T01:01:47.000Z,22.5
2022-10-08T01:02:57.000Z,22.5
2022-10-08T01:04:06.000Z,22.5
2022-10-08T01:05:16.000Z,22.5
2022-10-08T01:06:26.000Z,22.5
2022-10-08T01:07:36.000Z,22.5
2022-10-08T01:08:46.000Z,22.5
2022-10-08T01:09:56.000Z,22.5
2022-10-08T01:11:06.000Z,22.5
2022-10-08T01:12:16.000Z,22.5
2022-10-08T01:13:25.000Z,22.5
2022-10-08T01:14:34.000Z,22.5
2022-10-08T01:15:44.000Z,22.5
2022-10-08T01:16:53.000Z,22.5
2022-10-08T01:18:02.000Z,22.5
2022-10-08T01:19:12.000Z,22.5
2022-10-08T01:20:23.000Z,22.5
2022-10-08T01:21:33.000Z,22.5
2022-10-08T01:22:43.000Z,22.5
2022-10-08T01:23:53.000Z,22.5
2022-10-08T01:25:03.000Z,22.5
2022-10-08T01:26:13.000Z,22.5
2022-10-08T01:27:23.000Z,22.5
2022-10-08T01:28:33.000Z,22.5
2022-10-08T01:29:43.000Z,22.5
2022-10-08T01:30:54.000Z,22.5
2022-10-08T01:33:14.000Z,22.5
2022-10-08T01:34:23.000Z,22.5
2022-10-08T01:35:33.000Z,22.5
2022-10-08T01:36:43.000Z,22.5
2022-10-08T01:37:53.000Z,22.5
2022-10-08T01:39:03.000Z,22.5
2022-10-08T01:40:13.000Z,22.5
2022-10-08T01:41:24.000Z,22.5
2022-10-08T01:42:33.000Z,22.5
2022-10-08T01:43:42.000Z,22.5
2022-10-08T01:44:52.000Z,22.5
2022-10-08T01:46:01.000Z,22.5
2022-10-08T01:47:10.000Z,22.5
2022-10-08T01:48:20.000Z,22.5
2022-10-08T01:49:31.000Z,22.5
2022-10-08T01:50:41.000Z,22.5
2022-10-08T01:51:51.000Z,22.5
2022-10-08T01:53:01.000Z,22.5
2022-10-08T01:54:11.000Z,22.5
2022-10-08T01:55:21.000Z,22.5
2022-10-08T01:56:31.000Z,22.5
2022-10-08T01:57:41.000Z,22.5
2022-10-08T01:58:51.000Z,22.5
2022-10-08T02:00:02.000Z,22.4
2022-10-08T02:01:12.000Z,22.5
2022-10-08T02:02:21.000Z,22.5
2022-10-08T02:03:31.000Z,22.5
2022-10-08T02:04:41.000Z,22.5
2022-10-08T02:05:51.000Z,22.5
2022-10-08T02:07:01.000Z,22.4
2022-10-08T02:08:11.000Z,22.5
2022-10-08T02:09:21.000Z,22.5
2022-10-08T02:10:31.000Z,22.4
2022-10-08T02:11:40.000Z,22.4
2022-10-08T02:12:50.000Z,22.4
2022-10-08T02:13:59.000Z,22.5
2022-10-08T02:15:08.000Z,22.4
2022-10-08T02:16:18.000Z,22.4
2022-10-08T02:17:28.000Z,22.4
2022-10-08T02:18:38.000Z,22.4
2022-10-08T02:19:49.000Z,22.4
2022-10-08T02:20:59.000Z,22.4
2022-10-08T02:22:09.000Z,22.4
2022-10-08T02:23:19.000Z,22.4
2022-10-08T02:24:29.000Z,22.4
2022-10-08T02:25:39.000Z,22.4
2022-10-08T02:26:49.000Z,22.4
2022-10-08T02:27:59.000Z,22.4
2022-10-08T02:29:10.000Z,22.4
2022-10-08T02:30:19.000Z,22.4
2022-10-08T02:31:29.000Z,22.4
2022-10-08T02:32:39.000Z,22.4
2022-10-08T02:33:49.000Z,22.4
2022-10-08T02:34:59.000Z,22.4
2022-10-08T02:36:09.000Z,22.4
2022-10-08T02:37:19.000Z,22.4
2022-10-08T02:38:29.000Z,22.4
2022-10-08T02:39:38.000Z,22.4
2022-10-08T02:40:47.000Z,22.4
2022-10-08T02:41:56.000Z,22.4
2022-10-08T02:43:06.000Z,22.4
2022-10-08T02:45:26.000Z,22.4
2022-10-08T02:46:36.000Z,22.4
2022-10-08T02:47:47.000Z,22.4
2022-10-08T02:48:57.000Z,22.4
2022-10-08T02:50:07.000Z,22.4
2022-10-08T02:51:17.000Z,22.4
2022-10-08T02:52:27.000Z,22.4
2022-10-08T02:53:37.000Z,22.4
2022-10-08T02:54:47.000Z,22.4
2022-10-08T02:55:57.000Z,22.4
2022-10-08T02:57:06.000Z,22.4
2022-10-08T02:58:17.000Z,22.4
2022-10-08T02:59:27.000Z,22.4
2022-10-08T03:00:37.000Z,22.4
2022-10-08T03:01:47.000Z,22.4
2022-10-08T03:02:57.000Z,22.4
2022-10-08T03:04:07.000Z,22.4
2022-10-08T03:05:17.000Z,22.4
2022-10-08T03:06:26.000Z,22.4
2022-10-08T03:07:36.000Z,22.4
2022-10-08T03:08:46.000Z,22.4
2022-10-08T03:09:56.000Z,22.4
2022-10-08T03:11:06.000Z,22.4
2022-10-08T03:12:15.000Z,22.4
2022-10-08T03:13:24.000Z,22.4
2022-10-08T03:14:34.000Z,22.4
2022-10-08T03:15:44.000Z,22.4
2022-10-08T03:16:55.000Z,22.4
2022-10-08T03:18:05.000Z,22.4
2022-10-08T03:19:15.000Z,22.4
2022-10-08T03:20:25.000Z,22.4
2022-10-08T03:21:35.000Z,22.4
2022-10-08T03:22:45.000Z,22.4
2022-10-08T03:23:55.000Z,22.4
2022-10-08T03:25:05.000Z,22.4
2022-10-08T03:26:15.000Z,22.4
2022-10-08T03:27:26.000Z,22.4
2022-10-08T03:28:35.000Z,22.3
2022-10-08T03:29:45.000Z,22.4
2022-10-08T03:30:55.000Z,22.3
2022-10-08T03:32:05.000Z,22.4
2022-10-08T03:33:15.000Z,22.4
2022-10-08T03:34:25.000Z,22.4
2022-10-08T03:35:35.000Z,22.4
2022-10-08T03:37:56.000Z,22.4
2022-10-08T03:39:05.000Z,22.3
2022-10-08T03:40:14.000Z,22.3
2022-10-08T03:41:24.000Z,22.3
2022-10-08T03:42:34.000Z,22.3
2022-10-08T03:43:44.000Z,22.4
2022-10-08T03:44:54.000Z,22.3
2022-10-08T03:46:04.000Z,22.3
2022-10-08T03:47:15.000Z,22.3
2022-10-08T03:48:25.000Z,22.3
2022-10-08T03:49:35.000Z,22.3
2022-10-08T03:50:45.000Z,22.3
2022-10-08T03:51:55.000Z,22.3
2022-10-08T03:53:05.000Z,22.3
2022-10-08T03:54:15.000Z,22.3
2022-10-08T03:55:24.000Z,22.3
2022-10-08T03:56:35.000Z,22.3
2022-10-08T03:57:45.000Z,22.3
2022-10-08T03:58:55.000Z,22.3
2022-10-08T04:00:05.000Z,22.3
2022-10-08T04:01:15.000Z,22.3
2022-10-08T04:02:25.000Z,22.3
2022-10-08T04:03:34.000Z,22.3
2022-10-08T04:04:43.000Z,22.3
2022-10-08T04:05:53.000Z,22.3
2022-10-08T04:07:02.000Z,22.3
2022-10-08T04:08:12.000Z,22.3
2022-10-08T04:09:21.000Z,22.3
2022-10-08T04:10:30.000Z,22.3
2022-10-08T04:11:40.000Z,22.3
2022-10-08T04:12:50.000Z,22.3
2022-10-08T04:15:10.000Z,22.3
2022-10-08T04:16:21.000Z,22.3
2022-10-08T04:17:31.000Z,22.3
2022-10-08T04:18:41.000Z,22.3
2022-10-08T04:19:51.000Z,22.3
2022-10-08T04:21:01.000Z,22.3
2022-10-08T04:22:11.000Z,22.3
2022-10-08T04:23:21.000Z,22.3
2022-10-08T04:24:31.000Z,22.3
2022-10-08T04:25:41.000Z,22.3
2022-10-08T04:28:01.000Z,22.3
2022-10-08T04:29:10.000Z,22.3
2022-10-08T04:30:19.000Z,22.3
2022-10-08T04:31:29.000Z,22.3
2022-10-08T04:32:39.000Z,22.3
2022-10-08T04:33:49.000Z,22.3
2022-10-08T04:35:00.000Z,22.3
2022-10-08T04:36:10.000Z,22.3
2022-10-08T04:37:20.000Z,22.3
2022-10-08T04:38:30.000Z,22.3
2022-10-08T04:39:40.000Z,22.3
2022-10-08T04:40:50.000Z,22.3
2022-10-08T04:41:59.000Z,22.3
2022-10-08T04:43:08.000Z,22.3
2022-10-08T04:44:18.000Z,22.3
2022-10-08T04:45:29.000Z,22.3
2022-10-08T04:46:39.000Z,22.3
2022-10-08T04:47:49.000Z,22.3
2022-10-08T04:48:59.000Z,22.3
2022-10-08T04:50:09.000Z,22.3
2022-10-08T04:51:19.000Z,22.3
2022-10-08T04:52:29.000Z,22.3
2022-10-08T04:53:39.000Z,22.3
2022-10-08T04:56:00.000Z,22.3
2022-10-08T04:57:10.000Z,22.3
2022-10-08T04:58:19.000Z,22.3
2022-10-08T04:59:29.000Z,22.3
2022-10-08T05:00:39.000Z,22.3
2022-10-08T05:01:49.000Z,22.3
2022-10-08T05:02:59.000Z,22.3
2022-10-08T05:04:09.000Z,22.3
2022-10-08T05:05:20.000Z,22.3
2022-10-08T05:06:30.000Z,22.3
2022-10-08T05:07:39.000Z,22.2
2022-10-08T05:08:48.000Z,22.3
2022-10-08T05:09:58.000Z,22.3
2022-10-08T05:11:07.000Z,22.3
2022-10-08T05:12:16.000Z,22.3
2022-10-08T05:13:26.000Z,22.3
2022-10-08T05:14:37.000Z,22.3
2022-10-08T05:15:47.000Z,22.3
2022-10-08T05:16:57.000Z,22.3
2022-10-08T05:18:07.000Z,22.3
2022-10-08T05:19:17.000Z,22.2
2022-10-08T05:20:27.000Z,22.3
2022-10-08T05:21:37.000Z,22.2
2022-10-08T05:22:47.000Z,22.2
2022-10-08T05:23:58.000Z,22.2
2022-10-08T05:25:08.000Z,22.2
2022-10-08T05:26:18.000Z,22.2
2022-10-08T05:27:28.000Z,22.2
2022-10-08T05:28:37.000Z,22.2
2022-10-08T05:29:47.000Z,22.3
2022-10-08T05:30:57.000Z,22.2
2022-10-08T05:32:07.000Z,22.2
2022-10-08T05:33:17.000Z,22.2
2022-10-08T05:34:28.000Z,22.2
2022-10-08T05:35:37.000Z,22.2
2022-10-08T05:36:46.000Z,22.2
2022-10-08T05:37:56.000Z,22.2
2022-10-08T05:39:05.000Z,22.2
2022-10-08T05:40:14.000Z,22.2
2022-10-08T05:41:24.000Z,22.2
2022-10-08T05:42:34.000Z,22.2
2022-10-08T05:43:45.000Z,22.2
2022-10-08T05:44:55.000Z,22.2
2022-10-08T05:46:05.000Z,22.2
2022-10-08T05:47:15.000Z,22.2
2022-10-08T05:48:25.000Z,22.2
2022-10-08T05:49:35.000Z,22.2
2022-10-08T05:50:45.000Z,22.2
2022-10-08T05:51:55.000Z,22.2
2022-10-08T05:53:06.000Z,22.2
2022-10-08T05:54:16.000Z,22.2
2022-10-08T05:55:25.000Z,22.2
2022-10-08T05:56:35.000Z,22.2
2022-10-08T05:57:45.000Z,22.2
2022-10-08T05:58:55.000Z,22.2
2022-10-08T06:00:05.000Z,22.2
2022-10-08T06:01:15.000Z,22.2
2022-10-08T06:02:25.000Z,22.2
2022-10-08T06:03:35.000Z,22.2
2022-10-08T06:04:44.000Z,22.2
2022-10-08T06:05:54.000Z,22.2
2022-10-08T06:07:03.000Z,22.2
2022-10-08T06:08:12.000Z,22.2
2022-10-08T06:09:22.000Z,22.2
2022-10-08T06:10:32.000Z,22.2
2022-10-08T06:11:42.000Z,22.2
2022-10-08T06:12:53.000Z,22.2
2022-10-08T06:14:03.000Z,22.2
2022-10-08T06:15:13.000Z,22.2
2022-10-08T06:17:33.000Z,22.2
2022-10-08T06:18:43.000Z,22.2
2022-10-08T06:19:53.000Z,22.2
2022-10-08T06:21:03.000Z,22.2
2022-10-08T06:22:14.000Z,22.2
2022-10-08T06:23:23.000Z,22.2
2022-10-08T06:24:33.000Z,22.2
2022-10-08T06:25:43.000Z,22.2
2022-10-08T06:26:53.000Z,22.2
2022-10-08T06:28:03.000Z,22.2
2022-10-08T06:29:13.000Z,22.2
2022-10-08T06:30:23.000Z,22.2
2022-10-08T06:31:33.000Z,22.2
2022-10-08T06:32:43.000Z,22.2
2022-10-08T06:33:52.000Z,22.2
2022-10-08T06:35:02.000Z,22.2
2022-10-08T06:36:11.000Z,22.2
2022-10-08T06:37:20.000Z,22.2
2022-10-08T06:38:30.000Z,22.2
2022-10-08T06:39:40.000Z,22.2
2022-10-08T06:40:50.000Z,22.2
2022-10-08T06:42:01.000Z,22.2
2022-10-08T06:43:11.000Z,22.2
2022-10-08T06:44:21.000Z,22.2
2022-10-08T06:45:31.000Z,22.2
2022-10-08T06:46:41.000Z,22.2
2022-10-08T06:47:51.000Z,22.2
2022-10-08T06:49:01.000Z,22.2
2022-10-08T06:50:11.000Z,22.2
2022-10-08T06:51:22.000Z,22.2
2022-10-08T06:52:31.000Z,22.2
2022-10-08T06:53:41.000Z,22.2
2022-10-08T06:54:51.000Z,22.2
2022-10-08T06:56:01.000Z,22.2
2022-10-08T06:57:11.000Z,22.2
2022-10-08T06:58:21.000Z,22.2
2022-10-08T06:59:31.000Z,22.2
2022-10-08T07:00:40.000Z,22.2
2022-10-08T07:01:50.000Z,22.2
2022-10-08T07:03:00.000Z,22.2
2022-10-08T07:04:09.000Z,22.2
2022-10-08T07:05:18.000Z,22.2
2022-10-08T07:06:28.000Z,22.2
2022-10-08T07:07:38.000Z,22.2
2022-10-08T07:08:48.000Z,22.2
2022-10-08T07:09:58.000Z,22.2
2022-10-08T07:11:09.000Z,22.2
2022-10-08T07:12:19.000Z,22.2
2022-10-08T07:13:29.000Z,22.2
2022-10-08T07:14:39.000Z,22.2
2022-10-08T07:15:49.000Z,22.2
2022-10-08T07:16:59.000Z,22.2
2022-10-08T07:18:09.000Z,22.2
2022-10-08T07:19:19.000Z,22.2
2022-10-08T07:20:29.000Z,22.2
2022-10-08T07:21:39.000Z,22.2
2022-10-08T07:22:49.000Z,22.2
2022-10-08T07:23:59.000Z,22.2
2022-10-08T07:25:09.000Z,22.2
2022-10-08T07:26:19.000Z,22.2
2022-10-08T07:27:29.000Z,22.2
2022-10-08T07:28:38.000Z,22.2
2022-10-08T07:29:48.000Z,22.2
2022-10-08T07:30:57.000Z,22.2
2022-10-08T07:32:06.000Z,22.2
2022-10-08T07:33:16.000Z,22.2
2022-10-08T07:34:26.000Z,22.2
2022-10-08T07:35:36.000Z,22.2
2022-10-08T07:36:46.000Z,22.2
2022-10-08T07:37:56.000Z,22.2
2022-10-08T07:39:06.000Z,22.2
2022-10-08T07:40:17.000Z,22.2
2022-10-08T07:41:27.000Z,22.2
2022-10-08T07:42:37.000Z,22.2
2022-10-08T07:43:47.000Z,22.2
2022-10-08T07:44:57.000Z,22.2
2022-10-08T07:46:07.000Z,22.2
2022-10-08T07:47:16.000Z,22.2
2022-10-08T07:48:26.000Z,22.2
2022-10-08T07:50:47.000Z,22.2
2022-10-08T07:51:57.000Z,22.2
2022-10-08T07:53:07.000Z,22.2
2022-10-08T07:54:17.000Z,22.2
2022-10-08T07:55:27.000Z,22.2
2022-10-08T07:56:36.000Z,22.2
2022-10-08T07:57:45.000Z,22.2
2022-10-08T07:58:55.000Z,22.2
2022-10-08T08:00:04.000Z,22.2
2022-10-08T08:01:14.000Z,22.2
2022-10-08T08:02:24.000Z,22.2
2022-10-08T08:03:34.000Z,22.2
2022-10-08T08:04:44.000Z,22.2
2022-10-08T08:05:54.000Z,22.2
2022-10-08T08:07:04.000Z,22.2
2022-10-08T08:08:14.000Z,22.2
2022-10-08T08:09:25.000Z,22.2
2022-10-08T08:10:35.000Z,22.2
2022-10-08T08:11:45.000Z,22.2
2022-10-08T08:12:55.000Z,22.2
2022-10-08T08:14:05.000Z,22.2
2022-10-08T08:15:14.000Z,22.2
2022-10-08T08:16:24.000Z,22.2
2022-10-08T08:17:34.000Z,22.2
2022-10-08T08:18:45.000Z,22.2
2022-10-08T08:19:55.000Z,22.2
2022-10-08T08:21:05.000Z,22.2
2022-10-08T08:22:15.000Z,22.2
2022-10-08T08:23:24.000Z,22.2
2022-10-08T08:24:33.000Z,22.2
2022-10-08T08:25:43.000Z,22.2
2022-10-08T08:26:52.000Z,22.2
2022-10-08T08:28:03.000Z,22.2
2022-10-08T08:29:12.000Z,22.2
2022-10-08T08:30:22.000Z,22.2
2022-10-08T08:31:32.000Z,22.2
2022-10-08T08:32:42.000Z,22.2
2022-10-08T08:33:52.000Z,22.2
2022-10-08T08:35:02.000Z,22.2
2022-10-08T08:36:12.000Z,22.2
2022-10-08T08:37:22.000Z,22.2
2022-10-08T08:38:33.000Z,22.2
2022-10-08T08:39:43.000Z,22.2
2022-10-08T08:40:53.000Z,22.2
2022-10-08T08:42:03.000Z,22.2
2022-10-08T08:43:13.000Z,22.2
2022-10-08T08:44:22.000Z,22.2
2022-10-08T08:45:32.000Z,22.2
2022-10-08T08:46:42.000Z,22.2
2022-10-08T08:47:53.000Z,22.2
2022-10-08T08:49:03.000Z,22.2
2022-10-08T08:50:13.000Z,22.2
2022-10-08T08:51:22.000Z,22.2
2022-10-08T08:52:31.000Z,22.2
2022-10-08T08:53:41.000Z,22.2
2022-10-08T08:54:50.000Z,22.2
2022-10-08T08:55:59.000Z,22.2
2022-10-08T08:57:10.000Z,22.2
2022-10-08T08:58:20.000Z,22.2
2022-10-08T08:59:30.000Z,22.2
2022-10-08T09:00:40.000Z,22.2
2022-10-08T09:01:50.000Z,22.2
2022-10-08T09:03:00.000Z,22.2
2022-10-08T09:04:10.000Z,22.2
2022-10-08T09:05:20.000Z,22.2
2022-10-08T09:06:30.000Z,22.2
2022-10-08T09:07:41.000Z,22.2
2022-10-08T09:08:51.000Z,22.2
2022-10-08T09:10:01.000Z,22.2
2022-10-08T09:11:10.000Z,22.2
2022-10-08T09:12:20.000Z,22.2
2022-10-08T09:13:30.000Z,22.2
2022-10-08T09:14:40.000Z,22.2
2022-10-08T09:15:50.000Z,22.2
2022-10-08T09:17:01.000Z,22.2
2022-10-08T09:18:11.000Z,22.3
2022-10-08T09:19:20.000Z,22.2
2022-10-08T09:20:29.000Z,22.2
2022-10-08T09:21:39.000Z,22.3
2022-10-08T09:22:49.000Z,22.3
2022-10-08T09:23:58.000Z,22.3
2022-10-08T09:25:07.000Z,22.3
2022-10-08T09:26:18.000Z,22.3
2022-10-08T09:28:38.000Z,22.3
2022-10-08T09:29:48.000Z,22.3
2022-10-08T09:30:58.000Z,22.3
2022-10-08T09:32:08.000Z,22.3
2022-10-08T09:33:18.000Z,22.3
2022-10-08T09:34:28.000Z,22.3
2022-10-08T09:35:38.000Z,22.3
2022-10-08T09:36:49.000Z,22.3
2022-10-08T09:37:59.000Z,22.3
2022-10-08T09:39:09.000Z,22.3
2022-10-08T09:40:18.000Z,22.3
2022-10-08T09:41:28.000Z,22.3
2022-10-08T09:42:38.000Z,22.3
2022-10-08T09:43:48.000Z,22.3
2022-10-08T09:44:58.000Z,22.3
2022-10-08T09:46:09.000Z,22.3
2022-10-08T09:47:19.000Z,22.3
2022-10-08T09:48:29.000Z,22.3
2022-10-08T09:49:38.000Z,22.3
2022-10-08T09:50:47.000Z,22.3
2022-10-08T09:51:56.000Z,22.3
2022-10-08T09:53:05.000Z,22.3
2022-10-08T09:54:15.000Z,22.3
2022-10-08T09:55:26.000Z,22.3
2022-10-08T09:56:36.000Z,22.3
2022-10-08T09:57:46.000Z,22.3
2022-10-08T09:58:56.000Z,22.4
2022-10-08T10:00:06.000Z,22.4
2022-10-08T10:01:16.000Z,22.4
2022-10-08T10:02:26.000Z,22.4
2022-10-08T10:03:36.000Z,22.4
2022-10-08T10:04:46.000Z,22.4
2022-10-08T10:05:57.000Z,22.4
2022-10-08T10:07:07.000Z,22.4
2022-10-08T10:08:16.000Z,22.4
2022-10-08T10:09:26.000Z,22.4
2022-10-08T10:10:36.000Z,22.4
2022-10-08T10:11:46.000Z,22.4
2022-10-08T10:12:56.000Z,22.4
2022-10-08T10:14:06.000Z,22.5
2022-10-08T10:15:17.000Z,22.4
2022-10-08T10:16:26.000Z,22.5
2022-10-08T10:17:35.000Z,22.5
2022-10-08T10:18:44.000Z,22.5
2022-10-08T10:19:53.000Z,22.5
2022-10-08T10:21:03.000Z,22.5
2022-10-08T10:22:13.000Z,22.5
2022-10-08T10:23:23.000Z,22.5
2022-10-08T10:24:34.000Z,22.5
2022-10-08T10:25:44.000Z,22.6
2022-10-08T10:26:54.000Z,22.5
2022-10-08T10:28:03.000Z,22.6
2022-10-08T10:29:13.000Z,22.6
2022-10-08T10:30:23.000Z,22.6
2022-10-08T10:31:33.000Z,22.5
2022-10-08T10:32:43.000Z,22.6
2022-10-08T10:33:53.000Z,22.6
2022-10-08T10:35:04.000Z,22.6
2022-10-08T10:36:14.000Z,22.6
2022-10-08T10:37:24.000Z,22.5
2022-10-08T10:38:34.000Z,22.6
2022-10-08T10:39:44.000Z,22.6
2022-10-08T10:40:54.000Z,22.5
2022-10-08T10:42:04.000Z,22.5
2022-10-08T10:43:13.000Z,22.6
2022-10-08T10:44:23.000Z,22.6
2022-10-08T10:45:33.000Z,22.6
2022-10-08T10:46:42.000Z,22.5
2022-10-08T10:47:51.000Z,22.5
2022-10-08T10:49:01.000Z,22.6
2022-10-08T10:50:11.000Z,22.6
2022-10-08T10:51:21.000Z,22.6
2022-10-08T10:52:31.000Z,22.6
2022-10-08T10:53:42.000Z,22.6
2022-10-08T10:54:52.000Z,22.7
2022-10-08T10:56:02.000Z,22.7
2022-10-08T10:57:12.000Z,22.7
2022-10-08T10:58:22.000Z,22.7
2022-10-08T10:59:32.000Z,22.7
2022-10-08T11:00:42.000Z,22.7
2022-10-08T11:01:52.000Z,22.7
2022-10-08T11:03:01.000Z,22.7
2022-10-08T11:04:12.000Z,22.7
2022-10-08T11:05:22.000Z,22.7
2022-10-08T11:06:32.000Z,22.7
2022-10-08T11:07:42.000Z,22.7
2022-10-08T11:08:52.000Z,22.7
2022-10-08T11:10:02.000Z,22.7
2022-10-08T11:11:11.000Z,22.7
2022-10-08T11:12:20.000Z,22.7
2022-10-08T11:13:31.000Z,22.7
2022-10-08T11:14:40.000Z,22.6
2022-10-08T11:15:50.000Z,22.6
2022-10-08T11:17:00.000Z,22.6
2022-10-08T11:18:09.000Z,22.6
2022-10-08T11:19:19.000Z,22.6
2022-10-08T11:20:29.000Z,22.6
2022-10-08T11:21:39.000Z,22.6
2022-10-08T11:22:50.000Z,22.6
2022-10-08T11:24:00.000Z,22.6
2022-10-08T11:25:10.000Z,22.6
2022-10-08T11:26:20.000Z,22.6
2022-10-08T11:27:30.000Z,22.7
2022-10-08T11:28:40.000Z,22.7
2022-10-08T11:29:50.000Z,22.7
2022-10-08T11:31:00.000Z,22.7
2022-10-08T11:32:10.000Z,22.7
2022-10-08T11:34:30.000Z,22.7
2022-10-08T11:35:40.000Z,22.7
2022-10-08T11:36:50.000Z,22.7
2022-10-08T11:38:00.000Z,22.7
2022-10-08T11:39:10.000Z,22.8
2022-10-08T11:40:19.000Z,22.8
2022-10-08T11:41:28.000Z,22.8
2022-10-08T11:42:39.000Z,22.8
2022-10-08T11:43:48.000Z,22.8
2022-10-08T11:44:57.000Z,22.8
2022-10-08T11:46:07.000Z,22.8
2022-10-08T11:47:17.000Z,22.8
2022-10-08T11:48:27.000Z,22.8
2022-10-08T11:49:37.000Z,22.8
2022-10-08T11:50:47.000Z,22.8
2022-10-08T11:51:58.000Z,22.8
2022-10-08T11:53:08.000Z,22.8
2022-10-08T11:54:18.000Z,22.8
2022-10-08T11:55:28.000Z,22.8
2022-10-08T11:56:38.000Z,22.8
2022-10-08T11:57:48.000Z,22.8
2022-10-08T11:58:58.000Z,22.8
2022-10-08T12:00:07.000Z,22.8
2022-10-08T12:01:17.000Z,22.8
2022-10-08T12:02:28.000Z,22.8
2022-10-08T12:04:48.000Z,22.8
2022-10-08T12:05:58.000Z,22.8
2022-10-08T12:07:08.000Z,22.8
2022-10-08T12:08:18.000Z,22.8
2022-10-08T12:09:27.000Z,22.8
2022-10-08T12:10:36.000Z,22.8
2022-10-08T12:11:46.000Z,22.8
2022-10-08T12:12:56.000Z,22.8
2022-10-08T12:14:05.000Z,22.8
2022-10-08T12:15:15.000Z,22.8
2022-10-08T12:16:25.000Z,22.8
2022-10-08T12:17:35.000Z,22.8
2022-10-08T12:18:45.000Z,22.8
2022-10-08T12:19:55.000Z,22.8
2022-10-08T12:21:06.000Z,22.8
2022-10-08T12:22:16.000Z,22.8
2022-10-08T12:23:26.000Z,22.8
2022-10-08T12:24:36.000Z,22.8
2022-10-08T12:25:46.000Z,22.8
2022-10-08T12:26:56.000Z,22.8
2022-10-08T12:28:06.000Z,22.8
2022-10-08T12:29:15.000Z,22.8
2022-10-08T12:30:25.000Z,22.8
2022-10-08T12:31:36.000Z,22.8
2022-10-08T12:32:46.000Z,22.8
2022-10-08T12:33:56.000Z,22.8
2022-10-08T12:35:06.000Z,22.9
2022-10-08T12:36:16.000Z,22.9
2022-10-08T12:37:25.000Z,22.9
2022-10-08T12:38:34.000Z,22.9
2022-10-08T12:39:44.000Z,22.9
2022-10-08T12:40:55.000Z,22.9
2022-10-08T12:42:05.000Z,22.9
2022-10-08T12:43:15.000Z,23
2022-10-08T12:44:25.000Z,23
2022-10-08T12:45:35.000Z,23
2022-10-08T12:46:45.000Z,23
2022-10-08T12:47:55.000Z,23.1
2022-10-08T12:49:05.000Z,23.1
2022-10-08T12:50:16.000Z,23.1
2022-10-08T12:51:26.000Z,23.1
2022-10-08T12:52:36.000Z,23.1
2022-10-08T12:53:45.000Z,23.1
2022-10-08T12:54:55.000Z,23.2
2022-10-08T12:56:05.000Z,23.2
2022-10-08T12:57:15.000Z,23.2
2022-10-08T12:58:25.000Z,23.2
2022-10-08T12:59:35.000Z,23.2
2022-10-08T13:00:46.000Z,23.2
2022-10-08T13:01:55.000Z,23.3
2022-10-08T13:03:04.000Z,23.3
2022-10-08T13:04:14.000Z,23.3
2022-10-08T13:05:24.000Z,23.3
2022-10-08T13:06:33.000Z,23.4
2022-10-08T13:07:42.000Z,23.4
2022-10-08T13:08:51.000Z,23.4
2022-10-08T13:10:01.000Z,23.4
2022-10-08T13:11:11.000Z,23.4
2022-10-08T13:12:21.000Z,23.5
2022-10-08T13:13:31.000Z,23.5
2022-10-08T13:14:41.000Z,23.5
2022-10-08T13:15:51.000Z,23.5
2022-10-08T13:17:01.000Z,23.5
2022-10-08T13:18:11.000Z,23.5
2022-10-08T13:19:22.000Z,23.5
2022-10-08T13:20:32.000Z,23.6
2022-10-08T13:21:42.000Z,23.6
2022-10-08T13:22:52.000Z,23.6
2022-10-08T13:24:02.000Z,23.6
2022-10-08T13:25:11.000Z,23.6
2022-10-08T13:26:21.000Z,23.6
2022-10-08T13:27:31.000Z,23.6
2022-10-08T13:28:41.000Z,23.6
2022-10-08T13:29:52.000Z,23.6
2022-10-08T13:31:02.000Z,23.6
2022-10-08T13:32:12.000Z,23.7
2022-10-08T13:33:21.000Z,23.7
2022-10-08T13:34:30.000Z,23.7
2022-10-08T13:35:40.000Z,23.7
2022-10-08T13:36:50.000Z,23.7
2022-10-08T13:38:00.000Z,23.8
2022-10-08T13:39:11.000Z,23.8
2022-10-08T13:40:21.000Z,23.8
2022-10-08T13:41:31.000Z,23.8
2022-10-08T13:42:41.000Z,23.9
2022-10-08T13:43:51.000Z,23.9
2022-10-08T13:45:01.000Z,23.8
2022-10-08T13:46:11.000Z,23.8
2022-10-08T13:47:21.000Z,23.8
2022-10-08T13:48:32.000Z,23.8
2022-10-08T13:49:41.000Z,23.8
2022-10-08T13:50:51.000Z,23.8
2022-10-08T13:52:01.000Z,23.9
2022-10-08T13:53:11.000Z,23.9
2022-10-08T13:54:21.000Z,23.9
2022-10-08T13:55:31.000Z,23.9
2022-10-08T13:56:41.000Z,23.9
2022-10-08T13:57:50.000Z,24
2022-10-08T13:59:00.000Z,24
2022-10-08T14:00:09.000Z,24
2022-10-08T14:01:18.000Z,24
2022-10-08T14:02:28.000Z,24
2022-10-08T14:03:37.000Z,24.1
2022-10-08T14:04:46.000Z,24.1
2022-10-08T14:05:56.000Z,24.1
2022-10-08T14:07:07.000Z,24
2022-10-08T14:08:17.000Z,24
2022-10-08T14:09:27.000Z,24
2022-10-08T14:10:37.000Z,24
2022-10-08T14:11:47.000Z,24
2022-10-08T14:12:57.000Z,23.9
2022-10-08T14:14:07.000Z,23.9
2022-10-08T14:15:17.000Z,23.9
2022-10-08T14:16:27.000Z,23.9
2022-10-08T14:17:38.000Z,23.9
2022-10-08T14:18:48.000Z,24
2022-10-08T14:19:57.000Z,24
2022-10-08T14:22:17.000Z,24
2022-10-08T14:23:26.000Z,23.9
2022-10-08T14:24:36.000Z,23.9
2022-10-08T14:25:46.000Z,24
2022-10-08T14:26:57.000Z,24
2022-10-08T14:28:07.000Z,24
2022-10-08T14:29:16.000Z,24
2022-10-08T14:30:25.000Z,24
2022-10-08T14:31:34.000Z,24.1
2022-10-08T14:32:43.000Z,24.1
2022-10-08T14:33:53.000Z,24.1
2022-10-08T14:35:03.000Z,24.1
2022-10-08T14:36:14.000Z,24.1
2022-10-08T14:37:24.000Z,24
2022-10-08T14:38:34.000Z,24
2022-10-08T14:39:44.000Z,24
2022-10-08T14:40:54.000Z,24
2022-10-08T14:42:04.000Z,24
2022-10-08T14:43:14.000Z,24
2022-10-08T14:44:24.000Z,24
2022-10-08T14:45:34.000Z,24
2022-10-08T14:46:45.000Z,24
2022-10-08T14:47:54.000Z,24
2022-10-08T14:49:04.000Z,23.9
2022-10-08T14:50:14.000Z,24
2022-10-08T14:51:24.000Z,24
2022-10-08T14:52:34.000Z,24
2022-10-08T14:53:44.000Z,24
2022-10-08T14:54:54.000Z,24
2022-10-08T14:56:04.000Z,24.1
2022-10-08T14:57:13.000Z,24.1
2022-10-08T14:58:22.000Z,24.1
2022-10-08T14:59:31.000Z,24.1
2022-10-08T15:00:41.000Z,24.1
2022-10-08T15:01:51.000Z,24.1
2022-10-08T15:03:01.000Z,24.1
2022-10-08T15:04:11.000Z,24.1
2022-10-08T15:05:22.000Z,24.1
2022-10-08T15:06:32.000Z,24.1
2022-10-08T15:07:42.000Z,24.1
2022-10-08T15:08:52.000Z,24.1
2022-10-08T15:10:02.000Z,24.1
2022-10-08T15:11:12.000Z,24.1
2022-10-08T15:12:22.000Z,24.1
2022-10-08T15:13:32.000Z,24
2022-10-08T15:14:41.000Z,24
2022-10-08T15:15:52.000Z,24
2022-10-08T15:17:02.000Z,24
2022-10-08T15:18:12.000Z,24
2022-10-08T15:20:32.000Z,24
2022-10-08T15:21:42.000Z,24
2022-10-08T15:22:52.000Z,24
2022-10-08T15:24:01.930Z,24
2022-10-08T15:25:11.000Z,24
2022-10-08T15:26:20.000Z,24
2022-10-08T15:27:30.000Z,24
2022-10-08T15:28:39.000Z,24
2022-10-08T15:29:49.000Z,24
2022-10-08T15:30:59.000Z,24
2022-10-08T15:32:09.000Z,24
2022-10-08T15:33:19.000Z,24
2022-10-08T15:34:30.000Z,24
2022-10-08T15:35:40.000Z,24
2022-10-08T15:36:50.000Z,24
2022-10-08T15:38:00.000Z,24
2022-10-08T15:39:10.000Z,24
2022-10-08T15:40:20.000Z,24
2022-10-08T15:41:30.000Z,24
2022-10-08T15:42:40.000Z,24
2022-10-08T15:43:49.000Z,24
2022-10-08T15:45:00.000Z,24
2022-10-08T15:46:10.000Z,24
2022-10-08T15:47:20.000Z,24
2022-10-08T15:48:30.000Z,23.9
2022-10-08T15:49:40.000Z,23.9
2022-10-08T15:50:50.000Z,23.9